KGPH

Midwest National Air Center Airport

Mosby, Missouri, USA
METAR KGPH 201615Z AUTO 26010G14KT 10SM BKN026 OVC031 23/18 A2973 RMK AO2
Observed Flight Rules
Aug-20 @ 16:15 UTC (7 minutes ago) Marginal Visual Flight Rules
Wind Visibility Clouds
260° at 10 knots
 Gusting to 14 knots
10 miles
  • Broken at 2,600' AGL
  • Overcast at 3,100' AGL
Temperatures Readings
Current 23°C / 73°F
Dewpoint 18°C / 64°F
Humidity 74%
Altimeter 29.73" Hg
Pressure 1007 hPa
Elevation 235
METAR KGPH 201615Z AUTO 26010G14KT 10SM BKN026 OVC031 23/18 A2973 RMK AO2
Observed Flight Rules
Aug-20 @ 16:15 UTC
(7 minutes ago)
MVFR
Wind Visibility
260° at 10 knots
 Gusting to 14 knots
10 miles
Clouds
  • Broken at 2,600' AGL
  • Overcast at 3,100' AGL
Temperature Dewpoint
23°C / 73°F 18°C / 64°F
Humidity Altimeter Pressure
74% 29.73" Hg 1007 hPa